Nong Khai, Thailand
Current Conditions -  °F | °C
As of 11:00 PM on Friday 28 Nov 2014 (Local Time) from VLVT Reporting Station
Haze Haze  
Wind Chill: 79°   Ceiling: Unl
Heat Index: 82°   Visibility: 1.2mi
Dew Point: 73°   Wind: 2mph
Humidity: 83%   Direction: 180°S
Pressure: 29.83"   Gusts: NA
Location:  17.88°N, 102.74°E
Report Text: VLVT 281600Z 18002KT 2000 BR SCT050 26/23 Q1010 NOSIG
Loading
Personal Weather Stations






























Interactive Weather Map New forecast layout! Learn more

10-Day Weather Forecast

Advertisements
Track Severe Weather on mobile